| time (UTC) | temp C | wind direction | speed KPH | gust KPH | rain 1hr cm | rain 24hr cm | rain mn cm | humidity % | barometer mb |
| 20260906140013 | 22 | 85 | 6.4 | 14.5 | 0.00 | 0.00 | 0.00 | 55 | 1016.5 |
| 20260906134513 | 22 | 62 | 8.0 | 12.9 | 0.00 | 0.00 | 0.00 | 55 | 1016.4 |
| 20260906133011 | 22 | 53 | 6.4 | 11.3 | 0.00 | 0.00 | 0.00 | 55 | 1016.5 |
| 20260906131515 | 21 | 47 | 4.8 | 9.7 | 0.00 | 0.00 | 0.00 | 55 | 1016.4 |
| 20260906130020 | 21 | 29 | 4.8 | 11.3 | 0.00 | 0.00 | 0.00 | 56 | 1016.3 |
| 20260906124505 | 21 | 61 | 4.8 | 11.3 | 0.00 | 0.00 | 0.00 | 55 | 1016.2 |
| 20260906123010 | 21 | 43 | 4.8 | 9.7 | 0.00 | 0.00 | 0.00 | 55 | 1016.0 |
| 20260906121504 | 21 | 38 | 3.2 | 11.3 | 0.00 | 0.00 | 0.00 | 55 | 1015.9 |
| 20260906120000 | 21 | 27 | 0.0 | 3.2 | 0.00 | 0.00 | 0.00 | 55 | 1015.7 |
| 20260906114558 | 21 | 53 | 1.6 | 8.0 | 0.00 | 0.00 | 0.00 | 55 | 1015.3 |
| 20260906113057 | 21 | 63 | 3.2 | 4.8 | 0.00 | 0.00 | 0.00 | 55 | 1015.1 |
| 20260906111556 | 21 | 48 | 3.2 | 4.8 | 0.00 | 0.00 | 0.00 | 55 | 1015.1 |
| 20260906110054 | 21 | 42 | 3.2 | 6.4 | 0.00 | 0.00 | 0.00 | 55 | 1015.0 |
| 20260906104552 | 21 | 44 | 3.2 | 8.0 | 0.00 | 0.00 | 0.00 | 55 | 1014.9 |
| 20260906103054 | 21 | 58 | 1.6 | 9.7 | 0.00 | 0.00 | 0.00 | 55 | 1014.7 |
| 20260906101550 | 21 | 50 | 4.8 | 8.0 | 0.00 | 0.00 | 0.00 | 56 | 1014.6 |
| 20260906100049 | 21 | 63 | 3.2 | 8.0 | 0.00 | 0.00 | 0.00 | 56 | 1014.5 |
| 20260906094549 | 21 | 89 | 3.2 | 6.4 | 0.00 | 0.00 | 0.00 | 56 | 1014.4 |
| 20260906093053 | 21 | 56 | 3.2 | 8.0 | 0.00 | 0.00 | 0.00 | 57 | 1014.3 |
| 20260906091547 | 21 | 74 | 3.2 | 6.4 | 0.00 | 0.00 | 0.00 | 58 | 1014.0 |
| 20260906090045 | 21 | 65 | 4.8 | 11.3 | 0.00 | 0.00 | 0.00 | 62 | 1014.2 |
| 20260906084543 | 21 | 77 | 3.2 | 9.7 | 0.00 | 0.00 | 0.00 | 65 | 1014.2 |
| 20260906083047 | 21 | 63 | 3.2 | 11.3 | 0.00 | 0.00 | 0.00 | 68 | 1014.2 |
| 20260906081543 | 22 | 49 | 4.8 | 9.7 | 0.00 | 0.00 | 0.00 | 69 | 1014.3 |
| 20260906080040 | 22 | 44 | 8.0 | 19.3 | 0.00 | 0.00 | 0.00 | 68 | 1014.2 |
| 20260906074538 | 22 | 65 | 9.7 | 17.7 | 0.00 | 0.00 | 0.00 | 68 | 1014.1 |
| 20260906073036 | 22 | 66 | 12.9 | 20.9 | 0.00 | 0.00 | 0.00 | 67 | 1014.3 |
| 20260906071536 | 22 | 53 | 14.5 | 22.5 | 0.00 | 0.00 | 0.00 | 67 | 1014.5 |
| 20260906070032 | 22 | 51 | 6.4 | 12.9 | 0.00 | 0.00 | 0.00 | 68 | 1014.5 |
| 20260906064535 | 22 | 62 | 4.8 | 11.3 | 0.00 | 0.00 | 0.00 | 69 | 1014.5 |
| 20260906063028 | 23 | 48 | 6.4 | 9.7 | 0.00 | 0.00 | 0.00 | 69 | 1014.5 |
| 20260906061527 | 23 | 42 | 3.2 | 6.4 | 0.00 | 0.00 | 0.00 | 71 | 1014.6 |
| 20260906060023 | 23 | 50 | 1.6 | 4.8 | 0.00 | 0.00 | 0.00 | 72 | 1014.5 |
| 20260906054521 | 23 | 39 | 1.6 | 4.8 | 0.00 | 0.00 | 0.00 | 73 | 1014.2 |
| 20260906053023 | 23 | 71 | 1.6 | 6.4 | 0.00 | 0.00 | 0.00 | 75 | 1014.0 |
| 20260906051516 | 23 | 54 | 3.2 | 4.8 | 0.00 | 0.00 | 0.00 | 77 | 1013.9 |
| 20260906050038 | 24 | 53 | 3.2 | 6.4 | 0.00 | 0.00 | 0.00 | 78 | 1013.6 |
| 20260906044512 | 24 | 53 | 3.2 | 12.9 | 0.00 | 0.00 | 0.00 | 77 | 1013.4 |
| 20260906043011 | 25 | 56 | 3.2 | 16.1 | 0.00 | 0.00 | 0.00 | 77 | 1013.4 |
| 20260906041510 | 25 | 58 | 9.7 | 14.5 | 0.00 | 0.00 | 0.00 | 76 | 1013.2 |
| 20260906040008 | 25 | 58 | 12.9 | 20.9 | 0.00 | 0.00 | 0.00 | 75 | 1013.1 |
| 20260906034506 | 26 | 65 | 11.3 | 22.5 | 0.00 | 0.00 | 0.00 | 76 | 1013.1 |
| 20260906033005 | 26 | 75 | 16.1 | 25.7 | 0.00 | 0.00 | 0.00 | 75 | 1013.0 |
| 20260906031504 | 26 | 62 | 8.0 | 20.9 | 0.00 | 0.00 | 0.00 | 76 | 1012.9 |
| 20260906030004 | 27 | 60 | 9.7 | 16.1 | 0.00 | 0.00 | 0.00 | 76 | 1012.8 |
| 20260906024501 | 27 | 52 | 4.8 | 11.3 | 0.00 | 0.00 | 0.00 | 77 | 1012.7 |
| 20260906023000 | 27 | 62 | 4.8 | 12.9 | 0.00 | 0.00 | 0.00 | 78 | 1012.5 |
| 20260906021502 | 28 | 46 | 8.0 | 17.7 | 0.00 | 0.00 | 0.00 | 77 | 1012.2 |
| 20260906014614 | 28 | 49 | 3.2 | 8.0 | 0.00 | 0.00 | 0.00 | 77 | 1011.7 |
| 20260906013059 | 28 | 38 | 0.0 | 3.2 | 0.00 | 0.00 | 0.00 | 76 | 1011.4 |
| 20260906011604 | 29 | 13 | 0.0 | 1.6 | 0.00 | 0.00 | 0.00 | 76 | 1011.3 |
| 20260906010058 | 29 | 3 | 0.0 | 4.8 | 0.00 | 0.00 | 0.00 | 75 | 1011.2 |
| 20260906004559 | 30 | 47 | 3.2 | 6.4 | 0.00 | 0.00 | 0.00 | 74 | 1011.0 |
| 20260906003105 | 30 | 31 | 0.0 | 3.2 | 0.00 | 0.00 | 0.00 | 73 | 1011.0 |
| 20260906001555 | 30 | 44 | 3.2 | 8.0 | 0.00 | 0.00 | 0.00 | 72 | 1011.2 |
| 20260906000056 | 31 | 13 | 4.8 | 9.7 | 0.00 | 0.00 | 0.00 | 71 | 1011.1 |
| 20260905234607 | 31 | 349 | 3.2 | 12.9 | 0.00 | 0.00 | 0.00 | 69 | 1010.9 |
| 20260905233054 | 32 | 57 | 6.4 | 14.5 | 0.00 | 0.00 | 0.00 | 67 | 1011.1 |
| 20260905231556 | 32 | 30 | 6.4 | 12.9 | 0.00 | 0.00 | 0.00 | 66 | 1011.0 |
| 20260905230053 | 32 | 55 | 4.8 | 12.9 | 0.00 | 0.00 | 0.00 | 64 | 1010.8 |
| 20260905224551 | 33 | 23 | 8.0 | 16.1 | 0.00 | 0.00 | 0.00 | 63 | 1010.9 |
| 20260905223052 | 33 | 54 | 4.8 | 14.5 | 0.00 | 0.00 | 0.00 | 62 | 1010.9 |
| 20260905221550 | 33 | 299 | 4.8 | 9.7 | 0.00 | 0.00 | 0.00 | 62 | 1010.9 |
| 20260905220052 | 33 | 51 | 1.6 | 16.1 | 0.00 | 0.00 | 0.00 | 62 | 1010.9 |
| 20260905214601 | 33 | 41 | 4.8 | 9.7 | 0.00 | 0.00 | 0.00 | 59 | 1010.9 |
| 20260905213048 | 33 | 322 | 6.4 | 17.7 | 0.00 | 0.00 | 0.00 | 60 | 1010.9 |
| 20260905211546 | 34 | 48 | 4.8 | 14.5 | 0.00 | 0.00 | 0.00 | 60 | 1011.0 |
| 20260905210047 | 34 | 39 | 3.2 | 12.9 | 0.00 | 0.00 | 0.00 | 61 | 1011.0 |
| 20260905204543 | 35 | 35 | 4.8 | 11.3 | 0.00 | 0.00 | 0.00 | 58 | 1011.1 |
| 20260905203043 | 35 | 356 | 3.2 | 6.4 | 0.00 | 0.00 | 0.00 | 57 | 1011.2 |
| 20260905201542 | 35 | 13 | 4.8 | 9.7 | 0.00 | 0.00 | 0.00 | 55 | 1011.3 |
| 20260905200046 | 35 | 326 | 0.0 | 12.9 | 0.00 | 0.00 | 0.00 | 56 | 1011.3 |
| 20260905194541 | 35 | 41 | 4.8 | 14.5 | 0.00 | 0.00 | 0.00 | 54 | 1011.5 |
| 20260905193039 | 37 | 266 | 1.6 | 6.4 | 0.00 | 0.00 | 0.00 | 51 | 1011.5 |
| 20260905191536 | 36 | 32 | 4.8 | 11.3 | 0.00 | 0.00 | 0.00 | 51 | 1011.5 |
| 20260905190035 | 35 | 244 | 1.6 | 4.8 | 0.00 | 0.00 | 0.00 | 54 | 1011.5 |
| 20260905184538 | 36 | 233 | 3.2 | 8.0 | 0.00 | 0.00 | 0.00 | 54 | 1011.7 |
| 20260905183036 | 35 | 105 | 1.6 | 8.0 | 0.00 | 0.00 | 0.00 | 53 | 1011.8 |
| 20260905181532 | 36 | 278 | 3.2 | 11.3 | 0.00 | 0.00 | 0.00 | 53 | 1012.0 |
| 20260905180030 | 35 | 275 | 8.0 | 11.3 | 0.00 | 0.00 | 0.00 | 51 | 1012.1 |
| 20260905174535 | 35 | 263 | 4.8 | 9.7 | 0.00 | 0.00 | 0.00 | 55 | 1012.2 |
| 20260905173027 | 35 | 240 | 3.2 | 8.0 | 0.00 | 0.00 | 0.00 | 56 | 1012.4 |
| 20260905171526 | 35 | 53 | 1.6 | 9.7 | 0.00 | 0.00 | 0.00 | 56 | 1012.4 |
| 20260905170026 | 34 | 326 | 1.6 | 9.7 | 0.00 | 0.00 | 0.00 | 57 | 1012.5 |
| 20260905164524 | 35 | 30 | 0.0 | 4.8 | 0.00 | 0.00 | 0.00 | 57 | 1012.5 |
| 20260905163023 | 35 | 13 | 0.0 | 6.4 | 0.00 | 0.00 | 0.00 | 59 | 1012.6 |
| 20260905161519 | 34 | 257 | 0.0 | 4.8 | 0.00 | 0.00 | 0.00 | 60 | 1012.5 |
| 20260905160036 | 34 | 250 | 1.6 | 4.8 | 0.00 | 0.00 | 0.00 | 59 | 1012.7 |
| 20260905154514 | 33 | 251 | 0.0 | 4.8 | 0.00 | 0.00 | 0.00 | 61 | 1012.7 |
| 20260905153012 | 32 | 267 | 0.0 | 3.2 | 0.00 | 0.00 | 0.00 | 63 | 1012.6 |
| 20260905151508 | 32 | 262 | 0.0 | 1.6 | 0.00 | 0.00 | 0.00 | 63 | 1012.4 |
| 20260905150006 | 31 | 253 | 1.6 | 6.4 | 0.00 | 0.00 | 0.00 | 66 | 1012.5 |
| 20260905144601 | 30 | 278 | 0.0 | 0.0 | 0.00 | 0.00 | 0.00 | 68 | 1012.2 |
| 20260905143058 | 30 | 250 | 0.0 | 0.0 | 0.00 | 0.00 | 0.00 | 69 | 1012.2 |
| 20260905141610 | 28 | 262 | 0.0 | 0.0 | 0.00 | 0.00 | 0.00 | 71 | 1012.1 |